sensor_id;sensor_type;location;lat;lon;timestamp;pressure;altitude;pressure_sealevel;temperature;humidity
54562;BME280;69047;53.358;-1.486;2023-09-19T00:00:56;99286.44;;;11.83;68.59
54562;BME280;69047;53.358;-1.486;2023-09-19T00:03:22;99290.56;;;11.80;68.98
54562;BME280;69047;53.358;-1.486;2023-09-19T00:05:48;99300.38;;;11.76;69.74
54562;BME280;69047;53.358;-1.486;2023-09-19T00:08:16;99292.34;;;11.66;69.65
54562;BME280;69047;53.358;-1.486;2023-09-19T00:10:42;99292.19;;;11.57;70.90
54562;BME280;69047;53.358;-1.486;2023-09-19T00:13:08;99287.03;;;11.56;71.33
54562;BME280;69047;53.358;-1.486;2023-09-19T00:15:40;99271.88;;;11.79;70.41
54562;BME280;69047;53.358;-1.486;2023-09-19T00:18:07;99268.88;;;11.99;69.11
54562;BME280;69047;53.358;-1.486;2023-09-19T00:20:36;99281.34;;;11.57;70.07
54562;BME280;69047;53.358;-1.486;2023-09-19T00:23:02;99266.75;;;11.53;70.60
54562;BME280;69047;53.358;-1.486;2023-09-19T00:25:30;99268.28;;;11.59;69.83
54562;BME280;69047;53.358;-1.486;2023-09-19T00:27:57;99264.59;;;11.74;70.22
54562;BME280;69047;53.358;-1.486;2023-09-19T00:30:23;99253.41;;;11.81;69.86
54562;BME280;69047;53.358;-1.486;2023-09-19T00:32:50;99241.69;;;11.85;68.61
54562;BME280;69047;53.358;-1.486;2023-09-19T00:35:18;99236.69;;;11.92;68.60
54562;BME280;69047;53.358;-1.486;2023-09-19T00:37:44;99228.91;;;11.86;68.83
54562;BME280;69047;53.358;-1.486;2023-09-19T00:40:11;99219.72;;;11.63;69.45
54562;BME280;69047;53.358;-1.486;2023-09-19T00:42:41;99220.13;;;11.75;69.31
54562;BME280;69047;53.358;-1.486;2023-09-19T00:45:08;99231.69;;;11.81;68.88
54562;BME280;69047;53.358;-1.486;2023-09-19T00:47:37;99230.34;;;11.59;70.23
54562;BME280;69047;53.358;-1.486;2023-09-19T00:50:05;99221.03;;;11.71;69.17
54562;BME280;69047;53.358;-1.486;2023-09-19T00:52:36;99219.34;;;11.51;69.22
54562;BME280;69047;53.358;-1.486;2023-09-19T00:55:06;99220.03;;;11.80;68.43
54562;BME280;69047;53.358;-1.486;2023-09-19T00:57:33;99246.16;;;11.76;69.38
54562;BME280;69047;53.358;-1.486;2023-09-19T01:00:00;99255.63;;;11.97;68.16
54562;BME280;69047;53.358;-1.486;2023-09-19T01:02:31;99268.41;;;12.10;67.93
54562;BME280;69047;53.358;-1.486;2023-09-19T01:04:57;99260.13;;;12.20;68.19
54562;BME280;69047;53.358;-1.486;2023-09-19T01:07:23;99270.44;;;12.18;68.35
54562;BME280;69047;53.358;-1.486;2023-09-19T01:09:48;99261.34;;;12.28;67.28
54562;BME280;69047;53.358;-1.486;2023-09-19T01:12:17;99269.09;;;12.21;67.77
54562;BME280;69047;53.358;-1.486;2023-09-19T01:14:59;99256.97;;;12.13;67.81
54562;BME280;69047;53.358;-1.486;2023-09-19T01:17:33;99261.66;;;12.27;67.82
54562;BME280;69047;53.358;-1.486;2023-09-19T01:25:54;99255.25;;;11.85;69.28
54562;BME280;69047;53.358;-1.486;2023-09-19T01:28:53;99247.53;;;12.11;68.50
54562;BME280;69047;53.358;-1.486;2023-09-19T01:31:24;99247.38;;;12.02;69.50
54562;BME280;69047;53.358;-1.486;2023-09-19T01:34:02;99253.91;;;12.01;69.04
54562;BME280;69047;53.358;-1.486;2023-09-19T01:36:34;99263.34;;;12.04;69.41
54562;BME280;69047;53.358;-1.486;2023-09-19T01:39:07;99259.41;;;11.96;69.11
54562;BME280;69047;53.358;-1.486;2023-09-19T01:47:38;99259.81;;;12.22;68.32
54562;BME280;69047;53.358;-1.486;2023-09-19T01:52:47;99253.19;;;11.96;69.90
54562;BME280;69047;53.358;-1.486;2023-09-19T01:55:14;99258.38;;;11.92;69.82
54562;BME280;69047;53.358;-1.486;2023-09-19T02:00:21;99262.63;;;11.98;69.92
54562;BME280;69047;53.358;-1.486;2023-09-19T02:02:48;99264.75;;;12.20;68.72
54562;BME280;69047;53.358;-1.486;2023-09-19T02:05:22;99258.25;;;12.02;70.20
54562;BME280;69047;53.358;-1.486;2023-09-19T02:07:52;99258.38;;;11.92;70.14
54562;BME280;69047;53.358;-1.486;2023-09-19T02:10:23;99265.66;;;12.15;68.94
54562;BME280;69047;53.358;-1.486;2023-09-19T02:12:50;99256.28;;;12.21;69.18
54562;BME280;69047;53.358;-1.486;2023-09-19T02:15:15;99247.03;;;12.09;69.31
54562;BME280;69047;53.358;-1.486;2023-09-19T02:17:44;99251.53;;;12.13;68.87
54562;BME280;69047;53.358;-1.486;2023-09-19T02:20:12;99240.69;;;12.13;69.64
54562;BME280;69047;53.358;-1.486;2023-09-19T02:22:40;99238.88;;;12.09;69.65
54562;BME280;69047;53.358;-1.486;2023-09-19T02:25:06;99244.81;;;12.11;69.25
54562;BME280;69047;53.358;-1.486;2023-09-19T02:27:32;99237.47;;;12.11;69.19
54562;BME280;69047;53.358;-1.486;2023-09-19T02:29:57;99237.63;;;11.83;70.52
54562;BME280;69047;53.358;-1.486;2023-09-19T02:32:23;99231.03;;;11.89;71.04
54562;BME280;69047;53.358;-1.486;2023-09-19T02:34:48;99226.28;;;11.99;69.50
54562;BME280;69047;53.358;-1.486;2023-09-19T02:37:17;99221.66;;;12.32;68.26
54562;BME280;69047;53.358;-1.486;2023-09-19T02:39:44;99220.13;;;12.26;68.69
54562;BME280;69047;53.358;-1.486;2023-09-19T02:42:09;99231.97;;;12.16;68.91
54562;BME280;69047;53.358;-1.486;2023-09-19T02:44:35;99222.50;;;12.14;68.43
54562;BME280;69047;53.358;-1.486;2023-09-19T02:47:00;99225.59;;;12.07;69.50
54562;BME280;69047;53.358;-1.486;2023-09-19T02:49:26;99215.41;;;11.99;69.58
54562;BME280;69047;53.358;-1.486;2023-09-19T02:51:51;99203.31;;;11.92;69.82
54562;BME280;69047;53.358;-1.486;2023-09-19T02:54:17;99201.53;;;12.01;69.60
54562;BME280;69047;53.358;-1.486;2023-09-19T02:56:43;99202.22;;;11.93;69.64
54562;BME280;69047;53.358;-1.486;2023-09-19T02:59:09;99198.75;;;11.74;70.19
54562;BME280;69047;53.358;-1.486;2023-09-19T03:01:38;99208.41;;;11.80;70.64
54562;BME280;69047;53.358;-1.486;2023-09-19T03:04:04;99204.34;;;11.77;70.69
54562;BME280;69047;53.358;-1.486;2023-09-19T03:06:31;99200.56;;;11.78;70.40
54562;BME280;69047;53.358;-1.486;2023-09-19T03:08:56;99204.47;;;12.04;70.26
54562;BME280;69047;53.358;-1.486;2023-09-19T03:11:22;99196.34;;;12.04;69.52
54562;BME280;69047;53.358;-1.486;2023-09-19T03:13:53;99197.97;;;12.05;70.17
54562;BME280;69047;53.358;-1.486;2023-09-19T03:16:19;99201.03;;;12.17;69.51
54562;BME280;69047;53.358;-1.486;2023-09-19T03:18:47;99203.72;;;12.17;69.15
54562;BME280;69047;53.358;-1.486;2023-09-19T03:21:15;99197.81;;;12.15;69.43
54562;BME280;69047;53.358;-1.486;2023-09-19T03:23:40;99196.56;;;12.08;69.98
54562;BME280;69047;53.358;-1.486;2023-09-19T03:26:06;99200.13;;;12.22;69.40
54562;BME280;69047;53.358;-1.486;2023-09-19T03:28:33;99180.63;;;12.20;69.93
54562;BME280;69047;53.358;-1.486;2023-09-19T03:31:04;99175.22;;;12.34;69.40
54562;BME280;69047;53.358;-1.486;2023-09-19T03:33:30;99167.72;;;12.44;68.42
54562;BME280;69047;53.358;-1.486;2023-09-19T03:35:58;99164.50;;;12.42;68.77
54562;BME280;69047;53.358;-1.486;2023-09-19T03:38:25;99159.56;;;12.44;68.88
54562;BME280;69047;53.358;-1.486;2023-09-19T03:40:50;99151.69;;;12.43;69.18
54562;BME280;69047;53.358;-1.486;2023-09-19T03:43:16;99143.34;;;12.26;69.54
54562;BME280;69047;53.358;-1.486;2023-09-19T03:45:41;99148.28;;;12.37;69.90
54562;BME280;69047;53.358;-1.486;2023-09-19T03:48:10;99156.63;;;12.41;70.10
54562;BME280;69047;53.358;-1.486;2023-09-19T03:50:36;99141.44;;;12.40;69.77
54562;BME280;69047;53.358;-1.486;2023-09-19T03:53:02;99144.91;;;12.45;70.00
54562;BME280;69047;53.358;-1.486;2023-09-19T03:55:27;99141.75;;;12.38;69.67
54562;BME280;69047;53.358;-1.486;2023-09-19T03:57:53;99145.91;;;12.03;70.86
54562;BME280;69047;53.358;-1.486;2023-09-19T04:00:18;99135.47;;;12.10;71.67
54562;BME280;69047;53.358;-1.486;2023-09-19T04:02:47;99148.97;;;12.29;71.30
54562;BME280;69047;53.358;-1.486;2023-09-19T04:05:13;99144.84;;;12.32;70.39
54562;BME280;69047;53.358;-1.486;2023-09-19T04:07:38;99135.63;;;12.33;70.39
54562;BME280;69047;53.358;-1.486;2023-09-19T04:10:04;99126.94;;;12.17;71.73
54562;BME280;69047;53.358;-1.486;2023-09-19T04:12:29;99115.59;;;12.29;71.32
54562;BME280;69047;53.358;-1.486;2023-09-19T04:14:55;99119.28;;;12.05;72.14
54562;BME280;69047;53.358;-1.486;2023-09-19T04:17:21;99119.81;;;12.21;71.57
54562;BME280;69047;53.358;-1.486;2023-09-19T04:19:46;99134.16;;;12.08;72.23
54562;BME280;69047;53.358;-1.486;2023-09-19T04:22:11;99124.53;;;12.15;72.07
54562;BME280;69047;53.358;-1.486;2023-09-19T04:24:38;99132.53;;;12.07;72.39
54562;BME280;69047;53.358;-1.486;2023-09-19T04:27:04;99132.09;;;12.32;71.45
54562;BME280;69047;53.358;-1.486;2023-09-19T04:29:29;99118.22;;;12.34;71.85
54562;BME280;69047;53.358;-1.486;2023-09-19T04:31:58;99120.31;;;12.37;71.30
54562;BME280;69047;53.358;-1.486;2023-09-19T04:34:24;99106.66;;;12.28;72.18
54562;BME280;69047;53.358;-1.486;2023-09-19T04:36:50;99103.25;;;12.36;72.24
54562;BME280;69047;53.358;-1.486;2023-09-19T04:39:15;99094.47;;;12.26;72.61
54562;BME280;69047;53.358;-1.486;2023-09-19T04:41:42;99086.34;;;12.12;73.50
54562;BME280;69047;53.358;-1.486;2023-09-19T04:44:07;99074.78;;;12.34;72.88
54562;BME280;69047;53.358;-1.486;2023-09-19T04:46:33;99067.63;;;11.97;74.68
54562;BME280;69047;53.358;-1.486;2023-09-19T04:48:59;99063.25;;;12.42;73.18
54562;BME280;69047;53.358;-1.486;2023-09-19T04:51:24;99051.25;;;12.43;72.94
54562;BME280;69047;53.358;-1.486;2023-09-19T04:53:51;99042.13;;;12.11;74.35
54562;BME280;69047;53.358;-1.486;2023-09-19T04:56:17;99040.91;;;12.17;74.31
54562;BME280;69047;53.358;-1.486;2023-09-19T04:58:42;99033.28;;;12.06;74.51
54562;BME280;69047;53.358;-1.486;2023-09-19T05:01:08;99027.72;;;12.25;74.48
54562;BME280;69047;53.358;-1.486;2023-09-19T05:03:36;99028.34;;;12.35;74.32
54562;BME280;69047;53.358;-1.486;2023-09-19T05:06:02;99017.38;;;12.13;74.49
54562;BME280;69047;53.358;-1.486;2023-09-19T05:08:27;99005.91;;;12.16;75.06
54562;BME280;69047;53.358;-1.486;2023-09-19T05:10:53;99001.00;;;12.32;74.78
54562;BME280;69047;53.358;-1.486;2023-09-19T05:13:18;98984.72;;;12.32;75.36
54562;BME280;69047;53.358;-1.486;2023-09-19T05:15:43;98978.81;;;12.30;75.23
54562;BME280;69047;53.358;-1.486;2023-09-19T05:18:09;98967.63;;;12.31;75.75
54562;BME280;69047;53.358;-1.486;2023-09-19T05:20:35;98966.34;;;12.15;76.81
54562;BME280;69047;53.358;-1.486;2023-09-19T05:23:04;98962.22;;;12.04;77.54
54562;BME280;69047;53.358;-1.486;2023-09-19T05:25:33;98954.88;;;12.32;76.37
54562;BME280;69047;53.358;-1.486;2023-09-19T05:28:02;98945.03;;;11.81;78.47
54562;BME280;69047;53.358;-1.486;2023-09-19T05:30:29;98936.59;;;12.10;78.35
54562;BME280;69047;53.358;-1.486;2023-09-19T05:32:55;98912.47;;;12.08;78.67
54562;BME280;69047;53.358;-1.486;2023-09-19T05:35:21;98911.09;;;11.97;79.15
54562;BME280;69047;53.358;-1.486;2023-09-19T05:37:47;98902.53;;;12.04;79.47
54562;BME280;69047;53.358;-1.486;2023-09-19T05:40:17;98886.72;;;12.19;79.33
54562;BME280;69047;53.358;-1.486;2023-09-19T05:42:42;98882.19;;;12.29;78.71
54562;BME280;69047;53.358;-1.486;2023-09-19T05:45:09;98876.59;;;12.11;79.27
54562;BME280;69047;53.358;-1.486;2023-09-19T05:47:42;98871.34;;;12.29;78.88
54562;BME280;69047;53.358;-1.486;2023-09-19T05:50:09;98857.09;;;12.23;78.88
54562;BME280;69047;53.358;-1.486;2023-09-19T05:52:38;98846.06;;;12.06;79.65
54562;BME280;69047;53.358;-1.486;2023-09-19T05:55:07;98829.34;;;12.26;79.70
54562;BME280;69047;53.358;-1.486;2023-09-19T05:57:34;98826.00;;;12.29;80.31
54562;BME280;69047;53.358;-1.486;2023-09-19T05:59:59;98816.47;;;12.54;79.77
54562;BME280;69047;53.358;-1.486;2023-09-19T06:02:25;98810.88;;;12.37;79.92
54562;BME280;69047;53.358;-1.486;2023-09-19T06:04:55;98812.69;;;12.63;79.54
54562;BME280;69047;53.358;-1.486;2023-09-19T06:07:23;98807.88;;;12.60;79.89
54562;BME280;69047;53.358;-1.486;2023-09-19T06:09:52;98800.34;;;12.57;80.33
54562;BME280;69047;53.358;-1.486;2023-09-19T06:12:19;98807.38;;;12.58;80.95
54562;BME280;69047;53.358;-1.486;2023-09-19T06:14:44;98806.72;;;12.75;80.99
54562;BME280;69047;53.358;-1.486;2023-09-19T06:17:10;98802.63;;;12.86;80.28
54562;BME280;69047;53.358;-1.486;2023-09-19T06:19:35;98807.16;;;12.68;80.69
54562;BME280;69047;53.358;-1.486;2023-09-19T06:22:01;98792.38;;;12.83;80.66
54562;BME280;69047;53.358;-1.486;2023-09-19T06:24:26;98789.69;;;12.92;80.63
54562;BME280;69047;53.358;-1.486;2023-09-19T06:26:52;98777.59;;;12.98;80.18
54562;BME280;69047;53.358;-1.486;2023-09-19T06:29:18;98776.09;;;13.14;79.92
54562;BME280;69047;53.358;-1.486;2023-09-19T06:31:43;98772.34;;;13.01;80.06
54562;BME280;69047;53.358;-1.486;2023-09-19T06:34:10;98761.06;;;13.08;80.11
54562;BME280;69047;53.358;-1.486;2023-09-19T06:36:35;98770.09;;;13.03;80.09
54562;BME280;69047;53.358;-1.486;2023-09-19T06:39:01;98759.06;;;13.30;79.25
54562;BME280;69047;53.358;-1.486;2023-09-19T06:41:29;98757.38;;;13.12;80.07
54562;BME280;69047;53.358;-1.486;2023-09-19T06:43:55;98753.78;;;13.03;81.09
54562;BME280;69047;53.358;-1.486;2023-09-19T06:46:20;98738.22;;;13.17;80.73
54562;BME280;69047;53.358;-1.486;2023-09-19T06:48:45;98730.75;;;12.92;81.89
54562;BME280;69047;53.358;-1.486;2023-09-19T06:51:13;98711.03;;;13.17;81.16
54562;BME280;69047;53.358;-1.486;2023-09-19T06:53:41;98717.78;;;13.20;80.72
54562;BME280;69047;53.358;-1.486;2023-09-19T06:56:07;98709.97;;;13.36;80.92
54562;BME280;69047;53.358;-1.486;2023-09-19T06:58:32;98705.81;;;13.38;80.67
54562;BME280;69047;53.358;-1.486;2023-09-19T07:00:57;98693.63;;;13.27;81.27
54562;BME280;69047;53.358;-1.486;2023-09-19T07:03:23;98703.75;;;13.44;81.01
54562;BME280;69047;53.358;-1.486;2023-09-19T07:05:51;98676.72;;;13.47;81.01
54562;BME280;69047;53.358;-1.486;2023-09-19T07:08:18;98659.94;;;13.62;80.25
54562;BME280;69047;53.358;-1.486;2023-09-19T07:10:45;98661.06;;;13.78;79.49
54562;BME280;69047;53.358;-1.486;2023-09-19T07:13:13;98650.38;;;13.73;80.17
54562;BME280;69047;53.358;-1.486;2023-09-19T07:15:42;98648.59;;;13.60;80.48
54562;BME280;69047;53.358;-1.486;2023-09-19T07:18:15;98647.28;;;13.83;80.19
54562;BME280;69047;53.358;-1.486;2023-09-19T07:20:42;98645.84;;;13.77;80.36
54562;BME280;69047;53.358;-1.486;2023-09-19T07:23:23;98629.06;;;13.84;80.23
54562;BME280;69047;53.358;-1.486;2023-09-19T07:25:49;98620.22;;;14.04;79.67
54562;BME280;69047;53.358;-1.486;2023-09-19T07:28:15;98623.06;;;14.16;79.30
54562;BME280;69047;53.358;-1.486;2023-09-19T07:30:40;98628.88;;;14.06;79.87
54562;BME280;69047;53.358;-1.486;2023-09-19T07:33:07;98620.63;;;14.32;79.05
54562;BME280;69047;53.358;-1.486;2023-09-19T07:35:32;98618.72;;;14.41;78.55
54562;BME280;69047;53.358;-1.486;2023-09-19T07:37:58;98619.03;;;14.31;79.59
54562;BME280;69047;53.358;-1.486;2023-09-19T07:40:26;98613.13;;;14.37;79.51
54562;BME280;69047;53.358;-1.486;2023-09-19T07:42:57;98604.16;;;14.37;79.15
54562;BME280;69047;53.358;-1.486;2023-09-19T07:45:29;98610.97;;;14.52;79.23
54562;BME280;69047;53.358;-1.486;2023-09-19T07:47:55;98603.41;;;14.66;78.22
54562;BME280;69047;53.358;-1.486;2023-09-19T07:50:21;98593.97;;;14.63;78.69
54562;BME280;69047;53.358;-1.486;2023-09-19T07:52:48;98595.09;;;14.62;78.65
54562;BME280;69047;53.358;-1.486;2023-09-19T07:55:16;98577.94;;;14.62;79.01
54562;BME280;69047;53.358;-1.486;2023-09-19T07:57:45;98598.38;;;14.76;78.56
54562;BME280;69047;53.358;-1.486;2023-09-19T08:00:12;98557.56;;;14.68;79.27
54562;BME280;69047;53.358;-1.486;2023-09-19T08:02:39;98548.28;;;14.69;79.15
54562;BME280;69047;53.358;-1.486;2023-09-19T08:05:06;98553.06;;;14.72;78.83
54562;BME280;69047;53.358;-1.486;2023-09-19T08:07:38;98549.78;;;14.87;78.69
54562;BME280;69047;53.358;-1.486;2023-09-19T08:10:05;98542.50;;;14.91;78.82
54562;BME280;69047;53.358;-1.486;2023-09-19T08:12:36;98531.72;;;14.74;79.92
54562;BME280;69047;53.358;-1.486;2023-09-19T08:15:02;98536.09;;;14.95;79.56
54562;BME280;69047;53.358;-1.486;2023-09-19T08:17:28;98535.56;;;15.02;79.25
54562;BME280;69047;53.358;-1.486;2023-09-19T08:19:53;98542.31;;;14.75;79.54
54562;BME280;69047;53.358;-1.486;2023-09-19T08:22:19;98533.53;;;14.90;78.56
54562;BME280;69047;53.358;-1.486;2023-09-19T08:24:45;98547.16;;;14.90;78.46
54562;BME280;69047;53.358;-1.486;2023-09-19T08:27:11;98557.97;;;15.08;78.42
54562;BME280;69047;53.358;-1.486;2023-09-19T08:29:37;98548.63;;;15.09;78.30
54562;BME280;69047;53.358;-1.486;2023-09-19T08:32:03;98547.91;;;15.20;78.10
54562;BME280;69047;53.358;-1.486;2023-09-19T08:34:29;98558.44;;;15.30;77.33
54562;BME280;69047;53.358;-1.486;2023-09-19T08:36:56;98550.25;;;15.30;78.00
54562;BME280;69047;53.358;-1.486;2023-09-19T08:39:25;98555.63;;;15.39;77.63
54562;BME280;69047;53.358;-1.486;2023-09-19T08:41:58;98568.16;;;15.40;77.72
54562;BME280;69047;53.358;-1.486;2023-09-19T08:44:25;98574.84;;;15.42;78.11
54562;BME280;69047;53.358;-1.486;2023-09-19T08:46:54;98578.47;;;15.34;78.38
54562;BME280;69047;53.358;-1.486;2023-09-19T08:49:24;98568.41;;;15.26;78.81
54562;BME280;69047;53.358;-1.486;2023-09-19T08:52:01;98583.09;;;15.34;79.27
54562;BME280;69047;53.358;-1.486;2023-09-19T08:54:35;98572.28;;;15.25;79.05
54562;BME280;69047;53.358;-1.486;2023-09-19T08:57:06;98575.19;;;15.41;79.09
54562;BME280;69047;53.358;-1.486;2023-09-19T08:59:38;98566.59;;;15.30;79.17
54562;BME280;69047;53.358;-1.486;2023-09-19T09:02:10;98586.34;;;15.27;79.82
54562;BME280;69047;53.358;-1.486;2023-09-19T09:04:39;98574.84;;;15.42;79.24
54562;BME280;69047;53.358;-1.486;2023-09-19T09:07:10;98589.44;;;15.46;78.86
54562;BME280;69047;53.358;-1.486;2023-09-19T09:09:36;98577.97;;;15.32;79.61
54562;BME280;69047;53.358;-1.486;2023-09-19T09:12:02;98582.09;;;15.18;80.63
54562;BME280;69047;53.358;-1.486;2023-09-19T09:14:29;98585.75;;;15.42;79.89
54562;BME280;69047;53.358;-1.486;2023-09-19T09:16:55;98589.03;;;15.57;79.05
54562;BME280;69047;53.358;-1.486;2023-09-19T09:19:24;98578.91;;;15.78;78.31
54562;BME280;69047;53.358;-1.486;2023-09-19T09:21:51;98585.47;;;15.65;78.34
54562;BME280;69047;53.358;-1.486;2023-09-19T09:24:29;98584.22;;;15.74;78.33
54562;BME280;69047;53.358;-1.486;2023-09-19T09:26:56;98573.56;;;15.81;77.92
54562;BME280;69047;53.358;-1.486;2023-09-19T09:29:43;98570.13;;;16.05;76.84
54562;BME280;69047;53.358;-1.486;2023-09-19T09:34:57;98569.66;;;16.03;77.74
54562;BME280;69047;53.358;-1.486;2023-09-19T09:37:23;98578.59;;;16.24;76.66
54562;BME280;69047;53.358;-1.486;2023-09-19T09:39:55;98561.31;;;16.32;76.05
54562;BME280;69047;53.358;-1.486;2023-09-19T09:42:34;98555.50;;;16.46;75.87
54562;BME280;69047;53.358;-1.486;2023-09-19T09:45:16;98565.41;;;16.50;75.98
54562;BME280;69047;53.358;-1.486;2023-09-19T09:47:49;98573.25;;;16.40;77.14
54562;BME280;69047;53.358;-1.486;2023-09-19T09:50:25;98563.94;;;16.53;76.47
54562;BME280;69047;53.358;-1.486;2023-09-19T09:53:22;98551.78;;;16.63;75.85
54562;BME280;69047;53.358;-1.486;2023-09-19T09:55:58;98554.16;;;16.88;75.97
54562;BME280;69047;53.358;-1.486;2023-09-19T09:58:25;98547.78;;;16.96;75.91
54562;BME280;69047;53.358;-1.486;2023-09-19T10:00:55;98551.41;;;17.00;75.70
54562;BME280;69047;53.358;-1.486;2023-09-19T10:03:40;98550.47;;;17.08;75.34
54562;BME280;69047;53.358;-1.486;2023-09-19T10:06:11;98554.28;;;16.92;77.01
54562;BME280;69047;53.358;-1.486;2023-09-19T10:09:20;98545.66;;;17.17;75.53
54562;BME280;69047;53.358;-1.486;2023-09-19T10:11:47;98546.34;;;17.27;75.61
54562;BME280;69047;53.358;-1.486;2023-09-19T10:14:20;98553.16;;;17.33;75.45
54562;BME280;69047;53.358;-1.486;2023-09-19T10:16:49;98549.03;;;17.39;75.17
54562;BME280;69047;53.358;-1.486;2023-09-19T10:19:20;98548.13;;;17.75;74.54
54562;BME280;69047;53.358;-1.486;2023-09-19T10:21:49;98558.09;;;17.67;74.93
54562;BME280;69047;53.358;-1.486;2023-09-19T10:24:15;98555.69;;;17.93;73.76
54562;BME280;69047;53.358;-1.486;2023-09-19T10:26:43;98561.16;;;17.93;74.14
54562;BME280;69047;53.358;-1.486;2023-09-19T10:29:13;98568.69;;;17.96;73.53
54562;BME280;69047;53.358;-1.486;2023-09-19T10:31:39;98551.91;;;18.13;72.92
54562;BME280;69047;53.358;-1.486;2023-09-19T10:34:14;98553.09;;;18.12;73.37
54562;BME280;69047;53.358;-1.486;2023-09-19T10:36:44;98560.75;;;18.22;72.27
54562;BME280;69047;53.358;-1.486;2023-09-19T10:39:10;98548.50;;;18.32;72.82
54562;BME280;69047;53.358;-1.486;2023-09-19T10:41:39;98549.63;;;18.31;72.45
54562;BME280;69047;53.358;-1.486;2023-09-19T10:44:04;98553.34;;;18.23;73.41
54562;BME280;69047;53.358;-1.486;2023-09-19T10:46:32;98555.44;;;18.57;72.10
54562;BME280;69047;53.358;-1.486;2023-09-19T10:49:02;98563.00;;;18.64;71.77
54562;BME280;69047;53.358;-1.486;2023-09-19T10:51:31;98562.66;;;18.50;72.54
54562;BME280;69047;53.358;-1.486;2023-09-19T10:54:07;98554.88;;;18.52;73.24
54562;BME280;69047;53.358;-1.486;2023-09-19T10:56:38;98559.53;;;18.83;72.29
54562;BME280;69047;53.358;-1.486;2023-09-19T10:59:08;98553.13;;;19.10;71.04
54562;BME280;69047;53.358;-1.486;2023-09-19T11:01:52;98566.91;;;19.13;70.14
54562;BME280;69047;53.358;-1.486;2023-09-19T11:04:31;98580.06;;;19.23;70.83
54562;BME280;69047;53.358;-1.486;2023-09-19T11:07:08;98555.53;;;19.30;69.72
54562;BME280;69047;53.358;-1.486;2023-09-19T11:09:54;98563.59;;;19.39;70.12
54562;BME280;69047;53.358;-1.486;2023-09-19T11:14:54;98572.56;;;19.55;68.96
54562;BME280;69047;53.358;-1.486;2023-09-19T11:25:56;98570.25;;;19.22;70.23
54562;BME280;69047;53.358;-1.486;2023-09-19T11:28:28;98594.59;;;19.40;70.49
54562;BME280;69047;53.358;-1.486;2023-09-19T11:30:53;98596.41;;;19.35;70.95
54562;BME280;69047;53.358;-1.486;2023-09-19T11:33:30;98584.44;;;19.09;71.27
54562;BME280;69047;53.358;-1.486;2023-09-19T11:36:14;98585.41;;;19.16;71.48
54562;BME280;69047;53.358;-1.486;2023-09-19T11:49:16;98595.97;;;19.49;70.89
54562;BME280;69047;53.358;-1.486;2023-09-19T11:51:46;98600.41;;;19.38;70.89
54562;BME280;69047;53.358;-1.486;2023-09-19T11:54:14;98589.44;;;19.38;70.87
54562;BME280;69047;53.358;-1.486;2023-09-19T11:56:46;98596.09;;;19.56;70.72
54562;BME280;69047;53.358;-1.486;2023-09-19T11:59:20;98605.56;;;19.24;72.27
54562;BME280;69047;53.358;-1.486;2023-09-19T12:01:53;98607.75;;;19.34;72.06
54562;BME280;69047;53.358;-1.486;2023-09-19T12:04:41;98615.28;;;19.37;72.17
54562;BME280;69047;53.358;-1.486;2023-09-19T12:07:12;98605.94;;;19.22;72.45
54562;BME280;69047;53.358;-1.486;2023-09-19T12:10:03;98622.34;;;19.03;72.53
54562;BME280;69047;53.358;-1.486;2023-09-19T12:12:29;98618.69;;;19.15;72.33
54562;BME280;69047;53.358;-1.486;2023-09-19T12:14:56;98624.31;;;18.87;73.73
54562;BME280;69047;53.358;-1.486;2023-09-19T12:17:37;98620.50;;;18.92;74.33
54562;BME280;69047;53.358;-1.486;2023-09-19T12:20:04;98625.63;;;18.93;73.59
54562;BME280;69047;53.358;-1.486;2023-09-19T12:22:46;98622.28;;;18.84;74.60
54562;BME280;69047;53.358;-1.486;2023-09-19T12:25:13;98629.00;;;18.87;73.89
54562;BME280;69047;53.358;-1.486;2023-09-19T12:27:45;98624.75;;;18.73;74.94
54562;BME280;69047;53.358;-1.486;2023-09-19T12:30:15;98625.81;;;18.69;75.57
54562;BME280;69047;53.358;-1.486;2023-09-19T12:32:43;98638.47;;;18.89;74.38
54562;BME280;69047;53.358;-1.486;2023-09-19T12:35:09;98626.31;;;19.06;74.62
54562;BME280;69047;53.358;-1.486;2023-09-19T12:37:43;98629.84;;;19.06;74.40
54562;BME280;69047;53.358;-1.486;2023-09-19T12:40:13;98636.50;;;19.05;74.11
54562;BME280;69047;53.358;-1.486;2023-09-19T12:42:48;98646.09;;;19.30;73.71
54562;BME280;69047;53.358;-1.486;2023-09-19T12:45:14;98635.13;;;19.30;71.95
54562;BME280;69047;53.358;-1.486;2023-09-19T12:48:17;98647.94;;;19.58;73.51
54562;BME280;69047;53.358;-1.486;2023-09-19T12:51:05;98653.72;;;19.37;72.43
54562;BME280;69047;53.358;-1.486;2023-09-19T12:53:45;98645.22;;;19.26;71.76
54562;BME280;69047;53.358;-1.486;2023-09-19T12:56:15;98647.25;;;19.29;71.71
54562;BME280;69047;53.358;-1.486;2023-09-19T13:01:22;98648.34;;;19.09;73.03
54562;BME280;69047;53.358;-1.486;2023-09-19T13:04:12;98638.22;;;19.45;71.79
54562;BME280;69047;53.358;-1.486;2023-09-19T13:06:38;98640.78;;;19.38;72.39
54562;BME280;69047;53.358;-1.486;2023-09-19T13:09:09;98634.84;;;19.51;70.72
54562;BME280;69047;53.358;-1.486;2023-09-19T13:11:38;98646.03;;;19.43;70.76
54562;BME280;69047;53.358;-1.486;2023-09-19T13:14:21;98625.78;;;19.51;70.56
54562;BME280;69047;53.358;-1.486;2023-09-19T13:17:08;98643.22;;;19.58;70.90
54562;BME280;69047;53.358;-1.486;2023-09-19T13:19:45;98631.97;;;19.63;71.19
54562;BME280;69047;53.358;-1.486;2023-09-19T13:22:42;98649.03;;;19.38;71.96
54562;BME280;69047;53.358;-1.486;2023-09-19T13:25:12;98656.75;;;19.67;70.70
54562;BME280;69047;53.358;-1.486;2023-09-19T13:27:44;98643.81;;;19.67;69.10
54562;BME280;69047;53.358;-1.486;2023-09-19T13:30:14;98637.41;;;19.79;69.91
54562;BME280;69047;53.358;-1.486;2023-09-19T13:32:39;98640.34;;;19.70;69.66
54562;BME280;69047;53.358;-1.486;2023-09-19T13:35:07;98640.28;;;19.67;70.74
54562;BME280;69047;53.358;-1.486;2023-09-19T13:37:34;98645.13;;;19.73;70.84
54562;BME280;69047;53.358;-1.486;2023-09-19T13:40:09;98643.97;;;19.74;68.85
54562;BME280;69047;53.358;-1.486;2023-09-19T13:42:36;98632.78;;;19.83;68.51
54562;BME280;69047;53.358;-1.486;2023-09-19T13:45:02;98636.38;;;20.06;67.55